createdAt,value
2018-06-12T00:00:38.550Z,19.37
2018-06-12T00:03:07.338Z,19.63
2018-06-12T00:05:36.004Z,24.70
2018-06-12T00:08:04.716Z,19.90
2018-06-12T00:10:33.263Z,19.43
2018-06-12T00:13:01.887Z,25.27
2018-06-12T00:15:30.542Z,21.07
2018-06-12T00:17:59.745Z,20.63
2018-06-12T00:20:28.338Z,20.53
2018-06-12T00:22:57.580Z,19.67
2018-06-12T00:25:26.150Z,24.23
2018-06-12T00:27:54.796Z,20.77
2018-06-12T00:30:23.458Z,24.53
2018-06-12T00:32:52.247Z,19.53
2018-06-12T00:35:20.903Z,22.70
2018-06-12T00:37:49.553Z,19.53
2018-06-12T00:40:18.189Z,25.47
2018-06-12T00:42:46.874Z,20.13
2018-06-12T00:45:15.504Z,24.37
2018-06-12T00:47:44.086Z,19.90
2018-06-12T00:50:12.650Z,25.50
2018-06-12T00:52:43.405Z,20.13
2018-06-12T00:55:12.061Z,26.47
2018-06-12T00:57:40.633Z,20.63
2018-06-12T01:00:10.185Z,27.37
2018-06-12T01:02:38.824Z,21.27
2018-06-12T01:05:06.993Z,27.03
2018-06-12T01:07:35.620Z,21.67
2018-06-12T01:10:04.281Z,27.43
2018-06-12T01:12:33.710Z,21.33
2018-06-12T01:15:02.310Z,27.53
2018-06-12T01:17:30.883Z,26.77
2018-06-12T01:19:59.477Z,21.83
2018-06-12T01:22:31.269Z,27.77
2018-06-12T01:24:59.934Z,26.73
2018-06-12T01:27:28.613Z,21.57
2018-06-12T01:29:57.161Z,27.80
2018-06-12T01:32:25.769Z,20.33
2018-06-12T01:34:54.328Z,26.63
2018-06-12T01:37:22.964Z,21.23
2018-06-12T01:39:51.620Z,28.10
2018-06-12T01:42:20.217Z,21.10
2018-06-12T01:44:48.902Z,25.87
2018-06-12T01:47:17.688Z,21.77
2018-06-12T01:49:46.234Z,27.80
2018-06-12T01:52:14.781Z,21.90
2018-06-12T01:54:43.654Z,25.30
2018-06-12T01:57:12.235Z,21.10
2018-06-12T01:59:40.812Z,26.80
2018-06-12T02:02:09.402Z,21.80
2018-06-12T02:04:39.134Z,27.67
2018-06-12T02:07:07.847Z,21.70
2018-06-12T02:09:36.944Z,26.73
2018-06-12T02:12:05.510Z,21.70
2018-06-12T02:14:34.873Z,27.27
2018-06-12T02:17:03.579Z,21.23
2018-06-12T02:19:32.125Z,26.23
2018-06-12T02:22:00.792Z,26.97
2018-06-12T02:24:29.349Z,24.67
2018-06-12T02:26:58.005Z,24.93
2018-06-12T02:29:26.620Z,19.47
2018-06-12T02:31:55.273Z,25.13
2018-06-12T02:34:23.861Z,19.87
2018-06-12T02:36:52.429Z,24.43
2018-06-12T02:39:21.053Z,19.23
2018-06-12T02:41:49.704Z,23.73
2018-06-12T02:44:18.312Z,23.03
2018-06-12T02:46:47.247Z,25.67
2018-06-12T02:49:15.894Z,23.87
2018-06-12T02:51:44.568Z,23.40
2018-06-12T02:54:13.140Z,19.57
2018-06-12T02:56:41.769Z,26.17
2018-06-12T02:59:10.406Z,26.53
2018-06-12T03:01:39.019Z,28.33
2018-06-12T03:04:07.701Z,22.53
2018-06-12T03:06:36.278Z,26.77
2018-06-12T03:09:07.582Z,26.70
2018-06-12T03:11:36.142Z,21.90
2018-06-12T03:14:04.786Z,26.70
2018-06-12T03:16:33.336Z,24.30
2018-06-12T03:19:02.149Z,28.80
2018-06-12T03:21:31.477Z,24.80
2018-06-12T03:24:00.079Z,30.30
2018-06-12T03:26:28.732Z,29.50
2018-06-12T03:28:57.308Z,25.00
2018-06-12T03:31:26.600Z,31.73
2018-06-12T03:33:55.206Z,31.37
2018-06-12T03:36:27.770Z,26.90
2018-06-12T03:38:56.366Z,32.03
2018-06-12T03:41:25.074Z,32.57
2018-06-12T03:43:53.742Z,33.43
2018-06-12T03:46:23.092Z,25.40
2018-06-12T03:48:52.011Z,32.07
2018-06-12T03:51:20.729Z,33.30
2018-06-12T03:53:49.275Z,26.50
2018-06-12T03:56:17.808Z,32.30
2018-06-12T03:58:46.475Z,33.17
2018-06-12T04:01:15.053Z,27.43
2018-06-12T04:06:17.331Z,25.03
2018-06-12T04:08:46.077Z,30.37
2018-06-12T04:11:14.680Z,32.73
2018-06-12T04:13:43.622Z,29.90
2018-06-12T04:16:12.184Z,28.97
2018-06-12T04:18:40.798Z,27.63
2018-06-12T04:21:09.465Z,21.90
2018-06-12T04:23:40.295Z,25.43
2018-06-12T04:26:09.093Z,19.57
2018-06-12T04:28:37.726Z,23.20
2018-06-12T04:31:06.367Z,17.23
2018-06-12T04:33:34.948Z,19.80
2018-06-12T04:36:03.534Z,15.00
2018-06-12T04:38:32.253Z,18.13
2018-06-12T04:41:01.006Z,14.30
2018-06-12T04:43:29.693Z,17.17
2018-06-12T04:45:58.371Z,12.63
2018-06-12T04:48:26.937Z,15.13
2018-06-12T04:50:55.537Z,12.83
2018-06-12T04:53:24.143Z,15.03
2018-06-12T04:55:52.774Z,14.77
2018-06-12T04:58:21.398Z,15.10
2018-06-12T05:00:49.964Z,13.77
2018-06-12T05:03:19.347Z,14.43
2018-06-12T05:06:01.103Z,14.33
2018-06-12T05:08:29.665Z,14.07
2018-06-12T05:10:58.211Z,12.03
2018-06-12T05:13:26.769Z,15.43
2018-06-12T05:15:55.400Z,14.23
2018-06-12T05:18:23.965Z,15.20
2018-06-12T05:20:52.574Z,11.37
2018-06-12T05:23:21.181Z,15.57
2018-06-12T05:25:49.795Z,11.73
2018-06-12T05:28:18.363Z,15.37
2018-06-12T05:30:47.723Z,11.73
2018-06-12T05:33:16.321Z,13.63
2018-06-12T05:35:44.898Z,14.53
2018-06-12T05:38:13.479Z,14.60
2018-06-12T05:40:42.032Z,11.23
2018-06-12T05:43:10.862Z,14.40
2018-06-12T05:45:39.569Z,11.30
2018-06-12T05:48:08.637Z,14.57
2018-06-12T05:50:37.241Z,11.07
2018-06-12T05:53:05.845Z,13.83
2018-06-12T05:55:34.509Z,11.40
2018-06-12T05:58:03.327Z,14.37
2018-06-12T06:00:32.137Z,14.63
2018-06-12T06:03:00.813Z,11.17
2018-06-12T06:05:30.221Z,13.57
2018-06-12T06:08:00.089Z,12.20
2018-06-12T06:10:28.781Z,15.53
2018-06-12T06:12:57.481Z,12.60
2018-06-12T06:15:26.062Z,12.40
2018-06-12T06:17:54.940Z,14.43
2018-06-12T06:20:24.368Z,10.90
2018-06-12T06:22:53.552Z,14.43
2018-06-12T06:25:22.129Z,13.13
2018-06-12T06:27:50.725Z,13.20
2018-06-12T06:30:19.372Z,13.20
2018-06-12T06:32:47.910Z,15.53
2018-06-12T06:35:16.592Z,14.17
2018-06-12T06:37:45.298Z,14.97
2018-06-12T06:40:13.921Z,14.13
2018-06-12T06:42:42.505Z,17.17
2018-06-12T06:45:11.249Z,14.53
2018-06-12T06:47:39.911Z,17.53
2018-06-12T06:50:08.549Z,14.20
2018-06-12T06:52:37.144Z,15.77
2018-06-12T06:55:05.954Z,17.33
2018-06-12T06:57:34.642Z,12.50
2018-06-12T07:00:03.491Z,17.43
2018-06-12T07:02:32.183Z,14.37
2018-06-12T07:05:01.045Z,18.37
2018-06-12T07:07:29.598Z,16.30
2018-06-12T07:09:58.324Z,17.83
2018-06-12T07:12:26.885Z,14.47
2018-06-12T07:14:55.495Z,18.67
2018-06-12T07:17:24.061Z,14.23
2018-06-12T07:19:52.713Z,13.73
2018-06-12T07:22:21.389Z,16.20
2018-06-12T07:24:50.081Z,12.80
2018-06-12T07:27:18.864Z,12.87
2018-06-12T07:29:48.214Z,15.03
2018-06-12T07:32:16.851Z,12.13
2018-06-12T07:34:45.609Z,13.90
2018-06-12T07:37:14.257Z,14.20
2018-06-12T07:39:42.930Z,12.67
2018-06-12T07:42:11.602Z,11.33
2018-06-12T07:44:40.198Z,11.77
2018-06-12T07:47:09.621Z,11.80
2018-06-12T07:49:38.354Z,11.20
2018-06-12T07:52:07.533Z,10.03
2018-06-12T07:54:36.146Z,9.77
2018-06-12T07:57:04.981Z,9.57
2018-06-12T07:59:34.579Z,10.00
2018-06-12T08:02:03.251Z,9.93
2018-06-12T08:04:31.995Z,8.37
2018-06-12T08:07:00.660Z,8.37
2018-06-12T08:09:29.206Z,8.63
2018-06-12T08:11:58.010Z,8.07
2018-06-12T08:14:26.605Z,8.70
2018-06-12T08:16:55.229Z,8.83
2018-06-12T08:19:23.971Z,9.30
2018-06-12T08:21:53.225Z,8.70
2018-06-12T08:24:21.893Z,9.00
2018-06-12T08:26:50.513Z,8.67
2018-06-12T08:29:19.171Z,9.17
2018-06-12T08:31:47.804Z,8.07
2018-06-12T08:34:16.512Z,8.43
2018-06-12T08:36:45.169Z,8.20
2018-06-12T08:39:13.940Z,8.50
2018-06-12T08:41:42.639Z,8.77
2018-06-12T08:44:11.316Z,8.70
2018-06-12T08:46:40.008Z,7.87
2018-06-12T08:49:08.588Z,8.73
2018-06-12T08:51:37.152Z,8.53
2018-06-12T08:54:05.747Z,9.30
2018-06-12T08:56:34.363Z,8.50
2018-06-12T08:59:02.945Z,7.63
2018-06-12T09:01:31.605Z,7.97
2018-06-12T09:04:00.209Z,8.77
2018-06-12T09:06:28.888Z,8.43
2018-06-12T09:08:57.613Z,8.80
2018-06-12T09:11:26.370Z,9.10
2018-06-12T09:13:54.949Z,9.50
2018-06-12T09:16:23.624Z,9.87
2018-06-12T09:18:52.928Z,8.80
2018-06-12T09:21:21.534Z,9.10
2018-06-12T09:26:20.768Z,8.57
2018-06-12T09:28:49.487Z,7.87
2018-06-12T09:31:18.121Z,8.47
2018-06-12T09:33:46.653Z,8.17
2018-06-12T09:36:20.628Z,7.50
2018-06-12T09:38:49.477Z,8.53
2018-06-12T09:41:18.674Z,8.13
2018-06-12T09:43:48.086Z,7.50
2018-06-12T09:46:17.400Z,8.23
2018-06-12T09:48:46.060Z,7.77
2018-06-12T09:51:14.628Z,8.87
2018-06-12T09:53:44.335Z,9.00
2018-06-12T09:56:12.978Z,8.27
2018-06-12T09:58:41.547Z,7.67
2018-06-12T10:01:15.440Z,8.77
2018-06-12T10:03:44.052Z,7.63
2018-06-12T10:06:12.649Z,8.10
2018-06-12T10:08:41.492Z,8.13
2018-06-12T10:11:10.095Z,7.50
2018-06-12T10:13:38.725Z,7.37
2018-06-12T10:16:07.571Z,7.13
2018-06-12T10:18:36.266Z,8.40
2018-06-12T10:21:04.958Z,7.83
2018-06-12T10:23:33.623Z,7.90
2018-06-12T10:26:02.206Z,7.50
2018-06-12T10:28:30.803Z,7.20
2018-06-12T10:30:59.718Z,7.17
2018-06-12T10:33:28.369Z,7.53
2018-06-12T10:35:57.155Z,7.47
2018-06-12T10:38:25.775Z,7.27
2018-06-12T10:40:54.427Z,7.40
2018-06-12T10:43:23.289Z,7.97
2018-06-12T10:45:51.920Z,7.57
2018-06-12T10:48:20.592Z,8.20
2018-06-12T10:50:52.586Z,7.93
2018-06-12T10:53:21.220Z,8.47
2018-06-12T10:55:49.870Z,7.53
2018-06-12T10:58:18.514Z,7.60
2018-06-12T11:00:47.069Z,7.67
2018-06-12T11:03:15.649Z,8.37
2018-06-12T11:05:44.368Z,8.43
2018-06-12T11:08:12.957Z,8.50
2018-06-12T11:10:41.670Z,7.80
2018-06-12T11:13:10.376Z,7.23
2018-06-12T11:15:39.010Z,7.30
2018-06-12T11:18:07.685Z,8.13
2018-06-12T11:20:36.278Z,7.13
2018-06-12T11:23:05.033Z,9.00
2018-06-12T11:25:33.753Z,8.83
2018-06-12T11:28:02.416Z,8.17
2018-06-12T11:30:31.638Z,8.80
2018-06-12T11:33:00.261Z,9.23
2018-06-12T11:35:28.920Z,8.43
2018-06-12T11:37:59.967Z,9.37
2018-06-12T11:40:28.637Z,9.80
2018-06-12T11:42:57.170Z,8.97
2018-06-12T11:45:25.739Z,9.50
2018-06-12T11:47:54.400Z,9.53
2018-06-12T11:50:23.115Z,9.20
2018-06-12T11:52:51.765Z,10.63
2018-06-12T11:55:20.334Z,10.73
2018-06-12T11:57:48.896Z,10.47
2018-06-12T12:00:17.492Z,10.90
2018-06-12T12:02:46.091Z,12.07
2018-06-12T12:05:14.723Z,11.43
2018-06-12T12:07:43.285Z,10.77
2018-06-12T12:10:11.956Z,11.37
2018-06-12T12:12:40.800Z,11.20
2018-06-12T12:15:09.524Z,10.87
2018-06-12T12:17:38.210Z,10.27
2018-06-12T12:20:06.831Z,10.23
2018-06-12T12:22:35.372Z,9.80
2018-06-12T12:25:05.057Z,10.07
2018-06-12T12:27:33.636Z,10.63
2018-06-12T12:30:02.257Z,10.63
2018-06-12T12:32:30.850Z,10.03
2018-06-12T12:34:59.448Z,8.97
2018-06-12T12:37:28.471Z,9.67
2018-06-12T12:39:57.119Z,9.07
2018-06-12T12:42:25.685Z,9.17
2018-06-12T12:44:54.379Z,8.70
2018-06-12T12:47:23.149Z,8.43
2018-06-12T12:49:52.620Z,8.90
2018-06-12T12:52:21.258Z,9.30
2018-06-12T12:54:49.830Z,9.33
2018-06-12T12:57:18.428Z,9.00
2018-06-12T12:59:47.001Z,9.67
2018-06-12T13:02:16.030Z,9.87
2018-06-12T13:04:44.601Z,9.70
2018-06-12T13:07:13.653Z,9.63
2018-06-12T13:09:42.249Z,10.03
2018-06-12T13:12:10.845Z,10.33
2018-06-12T13:14:39.761Z,10.10
2018-06-12T13:17:30.040Z,10.30
2018-06-12T13:19:58.728Z,10.13
2018-06-12T13:22:27.357Z,9.83
2018-06-12T13:24:57.342Z,10.97
2018-06-12T13:27:26.014Z,10.77
2018-06-12T13:29:54.755Z,10.10
2018-06-12T13:32:35.922Z,10.37
2018-06-12T13:35:04.613Z,11.57
2018-06-12T13:37:33.822Z,10.33
2018-06-12T13:40:02.615Z,10.80
2018-06-12T13:42:39.767Z,11.97
2018-06-12T13:45:08.676Z,11.47
2018-06-12T13:47:37.297Z,11.47
2018-06-12T13:50:05.965Z,12.30
2018-06-12T13:52:35.355Z,11.73
2018-06-12T13:55:03.944Z,12.10
2018-06-12T13:57:32.574Z,12.13
2018-06-12T14:00:01.254Z,12.13
2018-06-12T14:02:30.868Z,12.60
2018-06-12T14:04:59.470Z,12.30
2018-06-12T14:07:28.154Z,13.00
2018-06-12T14:09:56.837Z,12.87
2018-06-12T14:12:25.497Z,12.20
2018-06-12T14:14:54.072Z,12.80
2018-06-12T14:17:22.620Z,12.57
2018-06-12T14:19:51.264Z,13.27
2018-06-12T14:22:19.948Z,12.07
2018-06-12T14:24:48.637Z,12.17
2018-06-12T14:27:17.836Z,12.80
2018-06-12T14:29:46.427Z,13.00
2018-06-12T14:32:15.160Z,11.80
2018-06-12T14:34:43.893Z,12.40
2018-06-12T14:37:12.571Z,11.97
2018-06-12T14:39:41.142Z,12.93
2018-06-12T14:42:10.535Z,12.20
2018-06-12T14:44:41.066Z,12.27
2018-06-12T14:47:10.510Z,11.43
2018-06-12T14:49:39.198Z,12.87
2018-06-12T14:52:08.187Z,11.90
2018-06-12T14:54:36.885Z,13.17
2018-06-12T14:57:05.741Z,13.23
2018-06-12T14:59:51.437Z,12.50
2018-06-12T15:02:20.395Z,12.47
2018-06-12T15:04:49.021Z,10.23
2018-06-12T15:07:18.214Z,11.70
2018-06-12T15:09:46.899Z,11.87
2018-06-12T15:12:15.582Z,11.40
2018-06-12T15:14:44.156Z,10.33
2018-06-12T15:17:12.896Z,10.83
2018-06-12T15:19:41.624Z,9.73
2018-06-12T15:22:10.754Z,9.50
2018-06-12T15:24:39.419Z,10.10
2018-06-12T15:27:08.028Z,9.23
2018-06-12T15:29:37.459Z,9.60
2018-06-12T15:32:13.695Z,10.40
2018-06-12T15:34:43.482Z,9.23
2018-06-12T15:37:41.240Z,10.03
2018-06-12T15:40:09.828Z,9.90
2018-06-12T15:42:38.487Z,9.30
2018-06-12T15:45:07.151Z,9.80
2018-06-12T15:47:35.793Z,12.23
2018-06-12T15:50:04.537Z,9.17
2018-06-12T15:52:33.108Z,9.30
2018-06-12T15:55:01.751Z,8.60
2018-06-12T15:57:30.500Z,9.00
2018-06-12T15:59:59.148Z,9.03
2018-06-12T16:02:27.841Z,8.90
2018-06-12T16:04:56.506Z,8.63
2018-06-12T16:07:25.150Z,8.00
2018-06-12T16:09:53.893Z,8.77
2018-06-12T16:12:37.119Z,7.97
2018-06-12T16:15:05.789Z,8.87
2018-06-12T16:17:34.444Z,11.20
2018-06-12T16:20:03.239Z,9.80
2018-06-12T16:22:32.702Z,9.10
2018-06-12T16:25:01.296Z,9.87
2018-06-12T16:27:30.797Z,9.63
2018-06-12T16:30:00.342Z,9.60
2018-06-12T16:32:29.045Z,12.40
2018-06-12T16:35:00.762Z,9.87
2018-06-12T16:37:29.442Z,10.17
2018-06-12T16:39:58.089Z,9.67
2018-06-12T16:42:26.770Z,10.00
2018-06-12T16:44:57.651Z,8.73
2018-06-12T16:47:26.337Z,9.43
2018-06-12T16:49:56.563Z,9.13
2018-06-12T16:52:25.187Z,10.70
2018-06-12T16:54:53.778Z,8.80
2018-06-12T16:57:22.626Z,8.83
2018-06-12T16:59:51.481Z,9.50
2018-06-12T17:02:20.147Z,9.03
2018-06-12T17:04:48.904Z,12.10
2018-06-12T17:07:17.529Z,9.63
2018-06-12T17:09:46.225Z,8.97
2018-06-12T17:12:17.317Z,10.27
2018-06-12T17:14:46.167Z,11.70
2018-06-12T17:17:20.068Z,9.83
2018-06-12T17:19:48.683Z,9.53
2018-06-12T17:22:27.571Z,9.30
2018-06-12T17:25:03.980Z,9.70
2018-06-12T17:27:34.501Z,9.63
2018-06-12T17:30:03.166Z,9.43
2018-06-12T17:32:31.817Z,9.73
2018-06-12T17:35:00.517Z,11.60
2018-06-12T17:37:29.359Z,9.10
2018-06-12T17:39:58.008Z,9.73
2018-06-12T17:42:26.678Z,8.63
2018-06-12T17:44:55.390Z,10.17
2018-06-12T17:47:24.033Z,8.10
2018-06-12T17:49:52.833Z,9.73
2018-06-12T17:52:22.033Z,8.10
2018-06-12T17:54:50.672Z,9.23
2018-06-12T17:57:19.370Z,7.27
2018-06-12T17:59:48.004Z,9.53
2018-06-12T18:02:17.990Z,6.97
2018-06-12T18:04:50.021Z,10.20
2018-06-12T18:07:18.586Z,7.87
2018-06-12T18:09:47.170Z,9.30
2018-06-12T18:12:24.333Z,8.50
2018-06-12T18:14:56.661Z,9.70
2018-06-12T18:17:25.397Z,8.80
2018-06-12T18:20:12.235Z,11.57
2018-06-12T18:22:40.901Z,8.93
2018-06-12T18:25:09.680Z,11.80
2018-06-12T18:27:38.988Z,9.27
2018-06-12T18:30:11.543Z,11.90
2018-06-12T18:32:42.938Z,10.07
2018-06-12T18:35:13.824Z,11.70
2018-06-12T18:37:42.902Z,10.50
2018-06-12T18:40:11.523Z,10.53
2018-06-12T18:42:40.209Z,12.70
2018-06-12T18:45:09.120Z,13.80
2018-06-12T18:47:37.674Z,10.50
2018-06-12T18:50:06.298Z,12.83
2018-06-12T18:52:35.292Z,11.93
2018-06-12T18:55:04.604Z,12.93
2018-06-12T18:57:33.281Z,13.07
2018-06-12T19:00:01.866Z,13.57
2018-06-12T19:02:30.622Z,10.80
2018-06-12T19:05:20.795Z,10.97
2018-06-12T19:07:50.094Z,10.63
2018-06-12T19:10:20.385Z,9.60
2018-06-12T19:12:50.304Z,9.73
2018-06-12T19:15:20.482Z,10.67
2018-06-12T19:18:02.059Z,8.40
2018-06-12T19:20:39.791Z,11.37
2018-06-12T19:23:08.472Z,10.40
2018-06-12T19:25:37.065Z,10.73
2018-06-12T19:28:05.800Z,10.57
2018-06-12T19:30:35.096Z,10.40
2018-06-12T19:33:04.987Z,9.83
2018-06-12T19:42:58.959Z,11.07
2018-06-12T19:45:27.691Z,10.47
2018-06-12T19:47:56.697Z,9.60
2018-06-12T19:50:27.389Z,8.93
2018-06-12T19:52:58.165Z,10.30
2018-06-12T19:55:26.969Z,9.67
2018-06-12T19:57:55.755Z,8.67
2018-06-12T20:00:24.552Z,7.50
2018-06-12T20:02:53.190Z,8.40
2018-06-12T20:05:21.848Z,7.07
2018-06-12T23:02:20.192Z,3.90
2018-06-12T23:04:48.837Z,2.63
2018-06-12T23:07:17.536Z,2.73
2018-06-12T23:09:46.195Z,3.40
2018-06-12T23:12:14.759Z,3.20
2018-06-12T23:14:43.343Z,3.00
2018-06-12T23:17:12.046Z,3.37
2018-06-12T23:19:51.799Z,3.13
2018-06-12T23:22:20.320Z,3.57
2018-06-12T23:24:48.955Z,3.33
2018-06-12T23:27:17.560Z,3.23
2018-06-12T23:29:46.106Z,3.80
2018-06-12T23:32:14.701Z,4.53
2018-06-12T23:34:43.921Z,4.00
2018-06-12T23:37:12.576Z,3.40
2018-06-12T23:39:41.356Z,3.87
2018-06-12T23:42:10.068Z,3.53
2018-06-12T23:44:38.601Z,3.87
2018-06-12T23:47:07.242Z,3.13
2018-06-12T23:49:35.917Z,3.63
2018-06-12T23:52:04.524Z,3.77
2018-06-12T23:54:33.085Z,4.40
2018-06-12T23:57:01.817Z,3.57
2018-06-12T23:59:30.471Z,3.97
